Berlin — 9HA2295 — position and weather

sailwx.info

Track history (hours):
 
Tides and Currents Weather Stations Pressure Air Temp Water Temp Dewpoint Dewpoint Depression Visibility Wind Speed Wind Dir Waves Ship Positions

Berlin

Last reported at 2015-Jul-02 13:27 UTC. Time now 2015-Jul-07 00:13 UTC.
Position N 61°59' W 007°12'.

Length 140 m; draft 5 m.

Type: Ship. MMSI: 248277000.

Date/timePositionNaut miles runAvg speedWind from/ knotsBaromVisibWave heightAir tempDewpointWater temp
2015-Jul-02 13:27N 61°59' W 007°12'1314.6
2015-Jul-02 12:33N 61°56' W 006°45'5 0.7
2015-Jul-02 06:14N 62°00' W 006°46'4 5.9
2015-Jul-02 05:33N 61°57' W 006°41'1412.2
2015-Jul-02 04:22N 61°51' W 006°13'1214.3
2015-Jul-02 03:32N 61°43' W 005°53'  
2015-Jun-28 19:27N 63°10' E 007°43'5312.7
2015-Jun-28 15:19N 63°42' E 009°15'1413.6
2015-Jun-28 14:16N 63°56' E 009°20'1013.6
2015-Jun-28 13:33N 64°04' E 009°33'1413.9
2015-Jun-28 12:33N 64°15' E 009°52'4314.0
2015-Jun-28 09:29N 64°46' E 011°02'1111.6
2015-Jun-28 08:33N 64°54' E 011°20'1212.3
2015-Jun-28 07:33N 65°02' E 011°42'1312.9
2015-Jun-28 06:33N 65°13' E 011°54'5612.4
2015-Jun-28 02:04N 66°05' E 012°42'713.5
2015-Jun-28 01:33N 66°11' E 012°51'1313.3
2015-Jun-28 00:33N 66°24' E 012°59'1912.5
2015-Jun-27 23:04N 66°42' E 013°09'712.9
2015-Jun-27 22:31N 66°49' E 013°16'1111.1
2015-Jun-27 21:33N 66°59' E 013°23'1313.3
2015-Jun-27 20:33N 67°13' E 013°25'187 6.9
2015-Jun-26 17:27N 69°35' E 018°51'1011.1
2015-Jun-26 16:33N 69°45' E 019°02'  
Track history (hours):
 
Tides and Currents Weather Stations Pressure Air Temp Water Temp Dewpoint Dewpoint Depression Visibility Wind Speed Wind Dir Waves Ship Positions

Berlin

Last reported at 2015-Jul-02 13:27 UTC. Time now 2015-Jul-07 00:13 UTC.
Position N 61°59' W 007°12'.

Length 140 m; draft 5 m.

Type: Ship. MMSI: 248277000.

Date/timePositionNaut miles runAvg speedWind from/ knotsBaromVisibWave heightAir tempDewpointWater temp
2015-Jul-02 13:27N 61°59' W 007°12'1314.6
2015-Jul-02 12:33N 61°56' W 006°45'5 0.7
2015-Jul-02 06:14N 62°00' W 006°46'4 5.9
2015-Jul-02 05:33N 61°57' W 006°41'1412.2
2015-Jul-02 04:22N 61°51' W 006°13'1214.3
2015-Jul-02 03:32N 61°43' W 005°53'  
2015-Jun-28 19:27N 63°10' E 007°43'5312.7
2015-Jun-28 15:19N 63°42' E 009°15'1413.6
2015-Jun-28 14:16N 63°56' E 009°20'1013.6
2015-Jun-28 13:33N 64°04' E 009°33'1413.9
2015-Jun-28 12:33N 64°15' E 009°52'4314.0
2015-Jun-28 09:29N 64°46' E 011°02'1111.6
2015-Jun-28 08:33N 64°54' E 011°20'1212.3
2015-Jun-28 07:33N 65°02' E 011°42'1312.9
2015-Jun-28 06:33N 65°13' E 011°54'5612.4
2015-Jun-28 02:04N 66°05' E 012°42'713.5
2015-Jun-28 01:33N 66°11' E 012°51'1313.3
2015-Jun-28 00:33N 66°24' E 012°59'1912.5
2015-Jun-27 23:04N 66°42' E 013°09'712.9
2015-Jun-27 22:31N 66°49' E 013°16'1111.1
2015-Jun-27 21:33N 66°59' E 013°23'1313.3
2015-Jun-27 20:33N 67°13' E 013°25'187 6.9
2015-Jun-26 17:27N 69°35' E 018°51'1011.1
2015-Jun-26 16:33N 69°45' E 019°02'  

Dump ship's entire track history